createdAt,value
2019-03-25T00:01:24.524Z,68.53
2019-03-25T00:03:55.052Z,73.30
2019-03-25T00:06:25.501Z,72.43
2019-03-25T00:09:04.992Z,82.33
2019-03-25T00:11:28.431Z,72.27
2019-03-25T00:13:58.958Z,71.00
2019-03-25T00:16:29.482Z,88.00
2019-03-25T00:18:59.918Z,78.63
2019-03-25T00:21:30.309Z,72.17
2019-03-25T00:24:00.728Z,74.50
2019-03-25T00:26:31.237Z,73.10
2019-03-25T00:29:01.670Z,74.90
2019-03-25T00:31:32.106Z,70.33
2019-03-25T00:34:02.464Z,79.57
2019-03-25T00:36:33.055Z,75.53
2019-03-25T00:39:04.236Z,83.23
2019-03-25T00:41:34.622Z,75.80
2019-03-25T00:44:05.199Z,81.23
2019-03-25T00:46:35.619Z,84.50
2019-03-25T00:49:06.155Z,84.23
2019-03-25T00:51:36.572Z,83.50
2019-03-25T00:54:07.045Z,71.27
2019-03-25T00:56:37.505Z,79.83
2019-03-25T00:59:09.446Z,79.83
2019-03-25T01:01:39.890Z,82.73
2019-03-25T01:04:10.321Z,85.70
2019-03-25T01:06:40.728Z,70.80
2019-03-25T01:09:11.168Z,82.47
2019-03-25T01:11:49.054Z,70.20
2019-03-25T01:14:13.754Z,79.87
2019-03-25T01:16:44.236Z,77.10
2019-03-25T01:19:14.708Z,70.73
2019-03-25T01:21:45.138Z,77.60
2019-03-25T01:24:15.715Z,79.07
2019-03-25T01:26:46.193Z,81.27
2019-03-25T01:29:16.599Z,77.90
2019-03-25T01:31:47.023Z,78.47
2019-03-25T01:34:17.469Z,94.63
2019-03-25T01:36:47.931Z,88.63
2019-03-25T01:39:18.322Z,78.77
2019-03-25T01:41:48.753Z,84.40
2019-03-25T01:44:19.183Z,73.33
2019-03-25T01:46:49.636Z,75.73
2019-03-25T01:49:20.062Z,80.37
2019-03-25T01:51:50.858Z,85.57
2019-03-25T01:54:21.271Z,83.83
2019-03-25T01:56:51.668Z,83.47
2019-03-25T01:59:22.141Z,78.40
2019-03-25T02:01:52.621Z,89.17
2019-03-25T02:04:22.987Z,86.90
2019-03-25T02:06:53.367Z,92.03
2019-03-25T02:09:23.831Z,86.43
2019-03-25T02:11:54.221Z,103.57
2019-03-25T02:14:24.693Z,109.73
2019-03-25T02:16:55.157Z,113.20
2019-03-25T02:19:25.601Z,125.03
2019-03-25T02:21:56.015Z,160.13
2019-03-25T02:24:26.447Z,171.57
2019-03-25T02:26:56.872Z,217.13
2019-03-25T02:29:27.320Z,243.73
2019-03-25T02:31:57.757Z,260.63
2019-03-25T02:34:28.286Z,222.80
2019-03-25T02:36:58.765Z,158.30
2019-03-25T02:39:29.252Z,148.47
2019-03-25T02:41:59.909Z,136.10
2019-03-25T02:44:30.463Z,133.87
2019-03-25T02:47:03.172Z,131.83
2019-03-25T02:49:33.732Z,125.13
2019-03-25T02:52:04.247Z,132.13
2019-03-25T02:54:36.521Z,143.67
2019-03-25T02:57:07.023Z,152.40
2019-03-25T02:59:37.568Z,154.87
2019-03-25T03:02:07.992Z,142.30
2019-03-25T03:04:38.491Z,138.33
2019-03-25T03:07:08.973Z,146.53
2019-03-25T03:09:39.492Z,119.80
2019-03-25T03:12:10.018Z,123.13
2019-03-25T03:14:40.584Z,117.27
2019-03-25T03:17:10.983Z,105.07
2019-03-25T03:19:41.601Z,94.67
2019-03-25T03:22:12.235Z,83.77
2019-03-25T03:24:42.695Z,90.53
2019-03-25T03:27:13.127Z,93.17
2019-03-25T03:29:43.625Z,81.83
2019-03-25T03:32:14.150Z,88.10
2019-03-25T03:34:44.617Z,80.97
2019-03-25T03:37:15.070Z,79.07
2019-03-25T03:39:45.493Z,81.93
2019-03-25T03:42:15.920Z,78.97
2019-03-25T03:44:46.321Z,82.03
2019-03-25T03:47:16.765Z,76.97
2019-03-25T03:49:47.275Z,80.43
2019-03-25T03:52:17.756Z,77.13
2019-03-25T03:54:48.190Z,79.93
2019-03-25T03:57:18.614Z,75.63
2019-03-25T03:59:49.189Z,71.27
2019-03-25T04:02:19.736Z,76.33
2019-03-25T04:04:50.126Z,72.57
2019-03-25T04:07:20.685Z,71.13
2019-03-25T04:09:51.109Z,72.23
2019-03-25T04:12:21.675Z,69.90
2019-03-25T04:14:52.184Z,73.40
2019-03-25T04:17:22.493Z,73.27
2019-03-25T04:19:52.893Z,74.73
2019-03-25T04:22:23.321Z,75.77
2019-03-25T04:24:53.743Z,80.27
2019-03-25T04:27:24.247Z,77.73
2019-03-25T04:29:54.662Z,77.67
2019-03-25T04:32:25.304Z,71.93
2019-03-25T04:34:55.735Z,73.43
2019-03-25T04:37:26.162Z,67.47
2019-03-25T04:39:56.675Z,66.50
2019-03-25T04:42:27.119Z,68.97
2019-03-25T04:44:57.712Z,66.93
2019-03-25T04:47:28.108Z,71.20
2019-03-25T04:50:02.906Z,60.00
2019-03-25T04:53:00.170Z,59.30
2019-03-25T04:55:20.585Z,62.70
2019-03-25T04:57:52.765Z,58.40
2019-03-25T05:00:32.402Z,59.50
2019-03-25T05:03:05.641Z,66.70
2019-03-25T05:05:36.434Z,58.67
2019-03-25T05:08:06.972Z,66.43
2019-03-25T05:10:37.412Z,65.20
2019-03-25T05:13:07.853Z,57.33
2019-03-25T05:15:38.342Z,59.83
2019-03-25T05:18:08.837Z,62.67
2019-03-25T05:20:39.262Z,59.90
2019-03-25T05:23:09.820Z,64.60
2019-03-25T05:25:40.527Z,61.87
2019-03-25T05:28:10.973Z,62.43
2019-03-25T05:30:41.544Z,54.63
2019-03-25T05:33:12.135Z,58.70
2019-03-25T05:35:42.715Z,55.47
2019-03-25T05:38:13.244Z,46.10
2019-03-25T05:40:43.694Z,52.63
2019-03-25T05:43:14.160Z,45.93
2019-03-25T05:45:44.778Z,48.37
2019-03-25T05:48:15.366Z,48.17
2019-03-25T05:50:46.911Z,55.63
2019-03-25T05:53:18.963Z,47.60
2019-03-25T05:55:51.281Z,48.97
2019-03-25T05:58:28.533Z,47.17
2019-03-25T06:01:00.453Z,48.33
2019-03-25T06:03:30.961Z,54.50
2019-03-25T06:06:03.653Z,56.40
2019-03-25T06:08:34.391Z,57.03
2019-03-25T06:11:12.083Z,62.43
2019-03-25T06:14:01.351Z,57.57
2019-03-25T06:16:36.446Z,55.57
2019-03-25T06:19:08.575Z,46.83
2019-03-25T06:21:39.237Z,53.77
2019-03-25T06:24:09.760Z,56.93
2019-03-25T06:26:45.194Z,53.60
2019-03-25T06:29:31.998Z,55.20
2019-03-25T06:32:23.497Z,59.07
2019-03-25T06:35:18.806Z,50.90
2019-03-25T06:37:55.268Z,47.80
2019-03-25T06:40:28.842Z,44.70
2019-03-25T06:42:59.985Z,50.67
2019-03-25T06:45:31.550Z,53.83
2019-03-25T06:48:02.143Z,47.30
2019-03-25T06:50:32.734Z,52.33
2019-03-25T06:53:06.314Z,48.67
2019-03-25T06:55:54.693Z,47.90
2019-03-25T07:01:20.926Z,49.67
2019-03-25T07:03:51.733Z,55.50
2019-03-25T07:06:23.826Z,58.13
2019-03-25T07:08:55.393Z,62.80
2019-03-25T07:11:25.997Z,61.73
2019-03-25T07:13:56.679Z,66.43
2019-03-25T07:16:28.675Z,60.07
2019-03-25T07:18:59.099Z,50.03
2019-03-25T07:21:29.869Z,52.17
2019-03-25T07:24:01.827Z,51.10
2019-03-25T07:26:32.497Z,44.23
2019-03-25T07:29:02.970Z,43.53
2019-03-25T07:31:33.395Z,37.90
2019-03-25T07:34:04.145Z,28.37
2019-03-25T07:36:45.229Z,32.67
2019-03-25T07:39:15.760Z,32.93
2019-03-25T07:41:48.031Z,27.80
2019-03-25T07:44:23.555Z,27.83
2019-03-25T07:46:56.981Z,28.90
2019-03-25T07:49:27.583Z,27.73
2019-03-25T07:51:59.236Z,25.80
2019-03-25T07:54:29.777Z,28.37
2019-03-25T07:57:00.282Z,26.03
2019-03-25T07:59:33.414Z,24.13
2019-03-25T08:02:05.876Z,24.00
2019-03-25T08:04:38.778Z,24.30
2019-03-25T08:07:10.918Z,23.67
2019-03-25T08:09:44.314Z,28.77
2019-03-25T08:12:20.866Z,28.43
2019-03-25T08:14:51.560Z,25.07
2019-03-25T08:17:22.182Z,23.13
2019-03-25T08:19:52.948Z,24.00
2019-03-25T08:22:25.259Z,31.60
2019-03-25T08:25:03.217Z,23.23
2019-03-25T08:27:59.431Z,29.27
2019-03-25T08:30:29.972Z,19.57
2019-03-25T08:33:04.417Z,19.37
2019-03-25T08:35:37.492Z,17.87
2019-03-25T08:38:29.249Z,16.63
2019-03-25T08:41:01.498Z,18.30
2019-03-25T08:43:45.388Z,18.63
2019-03-25T08:46:21.601Z,18.23
2019-03-25T08:48:56.712Z,16.83
2019-03-25T08:51:29.160Z,16.97
2019-03-25T08:54:01.459Z,13.70
2019-03-25T08:56:40.590Z,15.27
2019-03-25T08:59:29.360Z,19.47
2019-03-25T09:02:22.825Z,13.17
2019-03-25T09:04:57.042Z,15.17
2019-03-25T09:07:37.340Z,14.10
2019-03-25T09:10:09.346Z,17.87
2019-03-25T09:12:44.406Z,20.10
2019-03-25T09:15:38.991Z,19.37
2019-03-25T09:18:15.033Z,14.37
2019-03-25T09:20:47.506Z,17.17
2019-03-25T09:24:07.203Z,19.03
2019-03-25T09:26:11.306Z,16.47
2019-03-25T09:28:48.118Z,18.07
2019-03-25T09:31:21.108Z,17.43
2019-03-25T09:33:51.630Z,17.57
2019-03-25T09:36:35.428Z,21.07
2019-03-25T09:39:19.166Z,16.87
2019-03-25T09:42:03.929Z,13.40
2019-03-25T09:44:54.081Z,14.53
2019-03-25T09:47:38.130Z,15.00
2019-03-25T09:50:17.033Z,15.03
2019-03-25T09:52:50.508Z,14.90
2019-03-25T09:55:27.400Z,15.60
2019-03-25T09:57:58.300Z,16.30
2019-03-25T10:00:33.797Z,24.73
2019-03-25T10:03:07.233Z,18.47
2019-03-25T10:05:39.592Z,17.77
2019-03-25T10:08:23.850Z,14.87
2019-03-25T10:10:54.063Z,23.73
2019-03-25T10:13:25.001Z,20.30
2019-03-25T10:15:55.956Z,27.27
2019-03-25T10:18:28.489Z,19.77
2019-03-25T10:21:06.076Z,18.30
2019-03-25T10:23:38.359Z,17.53
2019-03-25T10:26:11.616Z,17.50
2019-03-25T10:28:49.289Z,14.63
2019-03-25T10:31:33.639Z,17.20
2019-03-25T10:34:08.834Z,17.80
2019-03-25T10:36:58.459Z,19.37
2019-03-25T10:39:41.313Z,22.07
2019-03-25T10:42:21.229Z,15.53
2019-03-25T10:44:51.694Z,13.67
2019-03-25T10:47:22.458Z,16.70
2019-03-25T10:49:52.929Z,13.20
2019-03-25T10:52:23.381Z,14.30
2019-03-25T10:57:28.124Z,14.67
2019-03-25T11:00:01.745Z,15.33
2019-03-25T11:02:32.355Z,13.03
2019-03-25T11:05:02.808Z,16.03
2019-03-25T11:07:34.903Z,15.00
2019-03-25T11:10:08.153Z,16.37
2019-03-25T11:12:38.826Z,16.20
2019-03-25T11:15:09.928Z,13.30
2019-03-25T11:17:40.460Z,14.13
2019-03-25T11:20:10.974Z,16.17
2019-03-25T11:22:41.512Z,12.90
2019-03-25T11:25:16.534Z,11.57
2019-03-25T11:27:54.263Z,16.90
2019-03-25T11:30:22.314Z,16.73
2019-03-25T11:32:52.751Z,13.80
2019-03-25T11:35:24.319Z,12.80
2019-03-25T11:37:54.772Z,14.33
2019-03-25T11:40:25.121Z,12.93
2019-03-25T11:42:55.566Z,15.37
2019-03-25T11:45:26.093Z,12.67
2019-03-25T11:47:56.666Z,36.07
2019-03-25T11:50:27.128Z,16.27
2019-03-25T11:52:57.538Z,14.87
2019-03-25T11:55:28.017Z,17.10
2019-03-25T11:57:58.466Z,11.53
2019-03-25T12:00:28.937Z,14.60
2019-03-25T12:02:59.372Z,15.53
2019-03-25T12:05:29.959Z,16.43
2019-03-25T12:08:00.368Z,13.67
2019-03-25T12:10:30.958Z,13.17
2019-03-25T12:13:01.369Z,17.30
2019-03-25T12:15:31.873Z,29.27
2019-03-25T12:18:02.291Z,13.47
2019-03-25T12:20:32.697Z,13.97
2019-03-25T12:23:03.133Z,16.73
2019-03-25T12:25:33.558Z,11.37
2019-03-25T12:28:04.121Z,10.87
2019-03-25T12:30:34.565Z,11.40
2019-03-25T12:33:05.074Z,12.53
2019-03-25T12:35:35.519Z,15.90
2019-03-25T12:38:05.946Z,13.97
2019-03-25T12:40:36.577Z,20.90
2019-03-25T12:43:06.959Z,29.73
2019-03-25T12:45:37.461Z,18.53
2019-03-25T12:48:07.939Z,15.13
2019-03-25T12:50:38.394Z,17.73
2019-03-25T12:53:08.803Z,13.10
2019-03-25T12:55:39.210Z,15.57
2019-03-25T12:58:09.624Z,16.40
2019-03-25T13:00:43.789Z,18.57
2019-03-25T13:03:14.245Z,12.60
2019-03-25T13:05:46.558Z,22.00
2019-03-25T13:08:17.027Z,17.33
2019-03-25T13:10:47.581Z,19.73
2019-03-25T13:13:18.020Z,23.30
2019-03-25T13:15:48.866Z,23.33
2019-03-25T13:18:19.386Z,20.23
2019-03-25T13:20:49.972Z,36.93
2019-03-25T13:23:20.578Z,20.63
2019-03-25T13:25:51.158Z,21.50
2019-03-25T13:28:21.707Z,22.20
2019-03-25T13:30:52.227Z,21.23
2019-03-25T13:33:22.770Z,21.40
2019-03-25T13:35:53.388Z,21.00
2019-03-25T13:38:28.264Z,19.73
2019-03-25T13:40:58.721Z,19.50
2019-03-25T13:43:29.175Z,20.70
2019-03-25T13:46:05.605Z,18.27
2019-03-25T13:48:34.478Z,21.00
2019-03-25T13:51:04.955Z,21.90
2019-03-25T13:53:35.518Z,21.27
2019-03-25T13:56:06.460Z,22.90
2019-03-25T13:58:37.114Z,35.00
2019-03-25T14:01:09.125Z,41.10
2019-03-25T14:03:39.693Z,39.20
2019-03-25T14:06:10.193Z,35.50
2019-03-25T14:08:40.706Z,38.87
2019-03-25T14:11:12.912Z,36.50
2019-03-25T14:13:49.235Z,35.77
2019-03-25T14:16:15.543Z,32.87
2019-03-25T14:18:46.041Z,35.67
2019-03-25T14:21:16.483Z,35.60
2019-03-25T14:23:47.008Z,28.97
2019-03-25T14:26:17.484Z,27.70
2019-03-25T14:28:48.191Z,24.83
2019-03-25T14:31:18.843Z,39.40
2019-03-25T14:33:49.255Z,28.33
2019-03-25T14:36:22.476Z,25.57
2019-03-25T14:38:55.778Z,26.47
2019-03-25T14:41:27.873Z,24.77
2019-03-25T14:43:58.335Z,30.57
2019-03-25T14:46:28.809Z,21.93
2019-03-25T14:48:59.374Z,21.77
2019-03-25T14:51:30.082Z,22.93
2019-03-25T14:54:00.415Z,20.43
2019-03-25T14:56:30.897Z,24.40
2019-03-25T14:59:01.412Z,23.30
2019-03-25T15:01:32.447Z,24.87
2019-03-25T15:04:03.051Z,24.07
2019-03-25T15:06:34.205Z,21.03
2019-03-25T15:09:08.026Z,25.50
2019-03-25T15:11:40.027Z,24.97
2019-03-25T15:14:10.462Z,25.13
2019-03-25T15:16:40.936Z,23.00
2019-03-25T15:19:11.475Z,25.00
2019-03-25T15:21:41.992Z,26.87
2019-03-25T15:24:12.480Z,35.17
2019-03-25T15:26:43.009Z,32.47
2019-03-25T15:29:13.862Z,29.07
2019-03-25T15:31:44.418Z,35.73
2019-03-25T15:34:15.310Z,35.63
2019-03-25T15:36:46.997Z,36.90
2019-03-25T15:39:19.133Z,33.30
2019-03-25T15:41:50.072Z,42.83
2019-03-25T15:44:20.595Z,38.57
2019-03-25T15:46:55.617Z,36.80
2019-03-25T15:49:23.343Z,36.87
2019-03-25T15:51:53.988Z,36.10
2019-03-25T15:54:26.043Z,34.97
2019-03-25T15:56:56.538Z,38.10
2019-03-25T15:59:27.176Z,43.40
2019-03-25T16:01:57.647Z,36.83
2019-03-25T16:04:28.265Z,32.60
2019-03-25T16:07:01.235Z,31.93
2019-03-25T16:09:31.582Z,42.47
2019-03-25T16:12:02.052Z,34.87
2019-03-25T16:14:32.433Z,43.93
2019-03-25T16:17:02.876Z,45.87
2019-03-25T16:19:34.417Z,40.20
2019-03-25T16:22:05.496Z,48.27
2019-03-25T16:24:36.020Z,40.57
2019-03-25T16:27:06.478Z,52.70
2019-03-25T16:29:37.083Z,45.17
2019-03-25T16:32:07.606Z,48.67
2019-03-25T16:34:38.080Z,41.47
2019-03-25T16:37:09.021Z,39.00
2019-03-25T16:39:39.984Z,42.00
2019-03-25T16:42:10.456Z,36.43
2019-03-25T16:44:40.918Z,39.57
2019-03-25T16:47:11.416Z,36.77
2019-03-25T16:49:41.893Z,39.23
2019-03-25T16:52:14.266Z,43.50
2019-03-25T16:54:44.794Z,38.03
2019-03-25T16:57:18.935Z,39.30
2019-03-25T16:59:49.426Z,42.73
2019-03-25T17:02:19.933Z,40.93
2019-03-25T17:04:50.449Z,37.23
2019-03-25T17:07:21.096Z,32.07
2019-03-25T17:09:51.713Z,35.03
2019-03-25T17:12:22.154Z,29.23
2019-03-25T17:14:53.224Z,28.43
2019-03-25T17:17:28.569Z,29.53
2019-03-25T17:19:59.136Z,25.03
2019-03-25T17:22:31.181Z,16.53
2019-03-25T17:25:04.165Z,25.60
2019-03-25T17:27:48.877Z,30.27
2019-03-25T17:30:37.761Z,25.33
2019-03-25T17:33:08.420Z,22.93
2019-03-25T17:35:39.674Z,22.90
2019-03-25T17:38:12.190Z,20.40
2019-03-25T17:40:42.709Z,27.07
2019-03-25T17:43:13.372Z,23.70
2019-03-25T17:45:45.664Z,23.80
2019-03-25T17:48:18.735Z,19.47
2019-03-25T17:50:49.356Z,17.83
2019-03-25T17:53:20.159Z,30.27
2019-03-25T17:55:58.558Z,31.30
2019-03-25T17:58:29.427Z,15.20
2019-03-25T18:01:06.416Z,16.43
2019-03-25T18:03:37.236Z,21.77
2019-03-25T18:06:11.641Z,17.33
2019-03-25T18:08:42.540Z,19.03
2019-03-25T18:11:14.789Z,18.20
2019-03-25T18:13:46.572Z,16.90
2019-03-25T18:16:17.940Z,16.33
2019-03-25T18:18:52.991Z,19.40
2019-03-25T18:21:25.869Z,18.83
2019-03-25T18:23:56.586Z,20.47
2019-03-25T18:26:29.768Z,19.20
2019-03-25T18:29:01.436Z,21.90
2019-03-25T18:31:42.430Z,18.50
2019-03-25T18:34:04.087Z,21.57
2019-03-25T18:36:34.631Z,22.87
2019-03-25T18:39:07.637Z,18.67
2019-03-25T18:41:39.038Z,17.83
2019-03-25T18:44:26.029Z,21.70
2019-03-25T18:46:59.094Z,20.53
2019-03-25T18:49:32.621Z,18.93
2019-03-25T18:52:03.285Z,17.50
2019-03-25T18:54:35.833Z,16.80
2019-03-25T18:57:16.957Z,22.77
2019-03-25T19:00:00.317Z,41.07
2019-03-25T19:02:32.887Z,14.67
2019-03-25T19:05:05.982Z,21.57
2019-03-25T19:07:36.560Z,15.10
2019-03-25T19:10:10.452Z,17.80
2019-03-25T19:12:42.615Z,22.83
2019-03-25T19:15:13.114Z,26.37
2019-03-25T19:17:46.624Z,28.50
2019-03-25T19:20:17.165Z,27.77
2019-03-25T19:22:48.026Z,32.13
2019-03-25T19:25:18.570Z,32.87
2019-03-25T19:27:49.079Z,27.80
2019-03-25T19:30:19.520Z,26.37
2019-03-25T19:32:50.004Z,36.17
2019-03-25T19:35:21.534Z,38.03
2019-03-25T19:37:52.206Z,45.20
2019-03-25T19:40:22.764Z,42.73
2019-03-25T19:42:53.304Z,41.77
2019-03-25T19:45:23.842Z,38.83
2019-03-25T19:47:54.379Z,38.50
2019-03-25T19:50:24.877Z,33.30
2019-03-25T19:52:55.323Z,33.30
2019-03-25T19:55:25.790Z,29.10
2019-03-25T19:57:57.596Z,29.37
2019-03-25T20:00:39.856Z,22.50
2019-03-25T20:03:13.439Z,24.60
2019-03-25T20:05:43.951Z,26.63
2019-03-25T20:08:16.607Z,27.73
2019-03-25T20:10:47.052Z,27.00
2019-03-25T20:13:17.431Z,25.67
2019-03-25T20:15:48.353Z,23.50
2019-03-25T20:18:18.966Z,24.17
2019-03-25T20:20:49.422Z,24.93
2019-03-25T20:23:20.491Z,31.63
2019-03-25T20:25:51.124Z,29.00
2019-03-25T20:28:21.713Z,29.50
2019-03-25T20:30:52.255Z,31.63
2019-03-25T20:33:23.559Z,29.40
2019-03-25T20:35:54.079Z,37.00
2019-03-25T20:38:24.709Z,33.00
2019-03-25T20:40:55.293Z,35.80
2019-03-25T20:43:25.896Z,34.93
2019-03-25T20:45:56.556Z,38.00
2019-03-25T20:48:27.145Z,34.77
2019-03-25T20:50:57.628Z,37.40
2019-03-25T20:53:28.158Z,32.23
2019-03-25T20:55:58.648Z,31.07
2019-03-25T20:58:29.178Z,32.53
2019-03-25T21:00:59.990Z,28.03
2019-03-25T21:03:30.485Z,28.07
2019-03-25T21:06:00.915Z,29.83
2019-03-25T21:08:31.494Z,23.27
2019-03-25T21:11:01.952Z,29.30
2019-03-25T21:13:35.023Z,28.37
2019-03-25T21:16:07.473Z,29.60
2019-03-25T21:18:42.753Z,41.77
2019-03-25T21:21:18.874Z,22.07
2019-03-25T21:23:49.796Z,25.83
2019-03-25T21:26:29.916Z,25.50
2019-03-25T21:29:03.016Z,23.37
2019-03-25T21:31:39.247Z,24.67
2019-03-25T21:34:11.628Z,21.50
2019-03-25T21:36:44.608Z,17.67
2019-03-25T21:39:18.052Z,16.47
2019-03-25T21:41:48.665Z,18.73
2019-03-25T21:44:19.162Z,23.33
2019-03-25T21:46:49.919Z,29.57
2019-03-25T21:49:20.377Z,21.80
2019-03-25T21:51:52.853Z,21.83
2019-03-25T21:54:28.535Z,23.63
2019-03-25T21:56:59.843Z,19.60
2019-03-25T21:59:30.414Z,25.30
2019-03-25T22:02:01.139Z,17.60
2019-03-25T22:04:31.670Z,22.27
2019-03-25T22:07:02.193Z,21.70
2019-03-25T22:09:32.716Z,22.17
2019-03-25T22:12:03.312Z,21.40
2019-03-25T22:14:33.887Z,19.73
2019-03-25T22:17:04.339Z,24.77
2019-03-25T22:19:34.748Z,25.63
2019-03-25T22:22:05.281Z,16.90
2019-03-25T22:24:36.045Z,22.67
2019-03-25T22:27:07.526Z,19.83
2019-03-25T22:29:37.971Z,20.40
2019-03-25T22:32:08.581Z,21.73
2019-03-25T22:34:39.000Z,22.47
2019-03-25T22:37:09.482Z,27.23
2019-03-25T22:39:39.983Z,28.00
2019-03-25T22:42:10.414Z,27.87
2019-03-25T22:44:40.925Z,22.73
2019-03-25T22:47:11.342Z,27.93
2019-03-25T22:49:41.718Z,25.27
2019-03-25T22:52:12.167Z,22.83
2019-03-25T22:54:42.687Z,24.47
2019-03-25T22:57:13.088Z,25.60
2019-03-25T22:59:43.498Z,21.83
2019-03-25T23:02:13.975Z,21.40
2019-03-25T23:04:45.295Z,16.20
2019-03-25T23:07:22.247Z,20.43
2019-03-25T23:10:04.292Z,14.53
2019-03-25T23:12:49.792Z,18.70
2019-03-25T23:15:20.263Z,18.17
2019-03-25T23:17:50.748Z,23.17
2019-03-25T23:20:21.173Z,30.43
2019-03-25T23:22:51.640Z,22.37
2019-03-25T23:25:22.184Z,19.80
2019-03-25T23:27:52.802Z,15.10
2019-03-25T23:30:23.224Z,14.63
2019-03-25T23:32:53.793Z,16.67
2019-03-25T23:35:24.052Z,23.17
2019-03-25T23:37:54.490Z,18.27
2019-03-25T23:40:24.981Z,25.50
2019-03-25T23:42:55.522Z,33.73
2019-03-25T23:46:20.033Z,30.00
2019-03-25T23:48:50.490Z,25.60
2019-03-25T23:51:21.071Z,21.43
2019-03-25T23:53:53.132Z,14.57
2019-03-25T23:56:23.563Z,18.90
2019-03-25T23:58:54.012Z,12.73
